Weather History for K1R7 - February, 2014

Change the Weather History Date:

Friday, February 21, 2014

  Actual Average Record
Temperature  
Mean Temperature 50 °F -  
Max Temperature 62 °F - - ()
Min Temperature 37 °F - - ()
Degree Days  
Heating Degree Days 16    
Moisture  
Dew Point 36 °F    
Average Humidity 68    
Maximum Humidity 100    
Minimum Humidity 22    
Precipitation  
Precipitation 0.12 in - - ()
Sea Level Pressure  
Sea Level Pressure 30.11 in    
Wind  
Wind Speed 5 mph (NNW)    
Max Wind Speed 16 mph    
Max Gust Speed 33 mph    
Visibility 10 miles    
Events Rain , Thunderstorm    
T = Trace of Precipitation, MM = Missing Value Source: NWS Daily Summary

Daily Weather History Graph

Daily Weather History Graph

Search for Another Location

Airport or City:

Trip Planner

Search our weather history database for the weather conditions in past years. The results will help you decide how hot, cold, wet, or windy it might be!

Date:

Astronomy

Feb. 21, 2014 Rise Set
Actual Time 6:37 AM CST 5:53 PM CST
Civil Twilight 6:12 AM CST 6:18 PM CST
Nautical Twilight 5:44 AM CST 6:46 PM CST
Astronomical Twilight 5:16 AM CST 7:14 PM CST
Moon No Moon Rise 10:26 AM CST (2/21)
Length of Visible Light 12h 05m
Length of Day
11h 16m
Waning Gibbous, 60% of the Moon is Illuminated
Feb 21
Waning Gibbous
Feb 22
Last Quarter
Mar 1
New
Mar 8
First Quarter
Mar 16
Full

Hourly Weather History & Observations

Time (CST) Temp. Windchill Dew Point Humidity Pressure Visibility Wind Dir Wind Speed Gust Speed Precip Events Conditions
12:15 AM 57.2 °F - 55.4 °F 94% 29.99 in 4.0 mi NW 16.1 mph 33.4 mph 0.01 in Rain , Thunderstorm Light Rain
12:35 AM 55.4 °F - 53.6 °F 94% 30.01 in 3.0 mi NW 12.7 mph 23.0 mph 0.05 in Rain Heavy Rain
12:55 AM 53.6 °F - 50.0 °F 88% 30.03 in 3.0 mi NNW 10.4 mph 21.9 mph 0.12 in Rain Light Rain
1:15 AM 53.6 °F - 51.8 °F 94% 30.06 in 9.0 mi NW 4.6 mph - N/A   Mostly Cloudy
1:35 AM 51.8 °F - 50.0 °F 94% 30.07 in 10.0 mi NW 4.6 mph - N/A   Mostly Cloudy
1:55 AM 51.8 °F - 50.0 °F 94% 30.08 in 10.0 mi NW 5.8 mph - N/A   Mostly Cloudy
2:15 AM 48.2 °F - 44.6 °F 87% 30.08 in 10.0 mi NNW 8.1 mph - N/A   Partly Cloudy
2:35 AM 48.2 °F - 44.6 °F 87% 30.08 in 10.0 mi NNW 6.9 mph - N/A   Clear
2:55 AM 48.2 °F - 42.8 °F 82% 30.08 in 10.0 mi North 6.9 mph - N/A   Clear
3:15 AM 46.4 °F 43.5 °F 39.2 °F 76% 30.08 in 10.0 mi North 5.8 mph - N/A   Clear
3:35 AM 46.4 °F 43.5 °F 39.2 °F 76% 30.08 in 10.0 mi NNW 5.8 mph - N/A   Clear
3:55 AM 44.6 °F 43.1 °F 39.2 °F 81% 30.08 in 10.0 mi North 3.5 mph - N/A   Clear
4:15 AM 44.6 °F - 39.2 °F 81% 30.09 in 10.0 mi Calm Calm - N/A   Clear
4:35 AM 42.8 °F - 39.2 °F 87% 30.10 in 10.0 mi Calm Calm - N/A   Clear
4:55 AM 41.0 °F - 39.2 °F 93% 30.10 in 10.0 mi Calm Calm - N/A   Clear
5:15 AM 39.2 °F - 39.2 °F 100% 30.10 in 10.0 mi Calm Calm - N/A   Clear
5:35 AM 41.0 °F - 39.2 °F 93% 30.11 in 10.0 mi Calm Calm - N/A   Clear
5:55 AM 39.2 °F - 39.2 °F 100% 30.12 in 10.0 mi Calm Calm - N/A   Clear
6:15 AM 39.2 °F - 39.2 °F 100% 30.12 in 9.0 mi Calm Calm - N/A   Clear
6:35 AM 37.4 °F - 37.4 °F 100% 30.13 in 9.0 mi Calm Calm - N/A   Clear
6:55 AM 37.4 °F - 37.4 °F 100% 30.14 in 10.0 mi Calm Calm - N/A   Clear
7:15 AM 37.4 °F - 37.4 °F 100% 30.14 in 9.0 mi Calm Calm - N/A   Clear
7:35 AM 39.2 °F - 39.2 °F 100% 30.14 in 10.0 mi Calm Calm - N/A   Clear
7:55 AM 44.6 °F - 41.0 °F 87% 30.14 in 10.0 mi Calm Calm - N/A   Clear
8:15 AM 46.4 °F - 39.2 °F 76% 30.15 in 10.0 mi Calm Calm - N/A   Clear
8:35 AM 48.2 °F - 39.2 °F 71% 30.15 in 10.0 mi North 4.6 mph - N/A   Clear
9:15 AM 51.8 °F - 39.2 °F 62% 30.16 in 10.0 mi North 6.9 mph - N/A   Clear
9:35 AM 51.8 °F - 35.6 °F 54% 30.16 in 10.0 mi NNW 9.2 mph - N/A   Clear
9:55 AM 53.6 °F - 35.6 °F 51% 30.16 in 10.0 mi North 8.1 mph - N/A   Clear
10:15 AM 53.6 °F - 32.0 °F 44% 30.15 in 10.0 mi NNW 10.4 mph 16.1 mph N/A   Clear
10:35 AM 55.4 °F - 33.8 °F 44% 30.15 in 10.0 mi North 8.1 mph - N/A   Clear
10:55 AM 55.4 °F - 32.0 °F 41% 30.16 in 10.0 mi NNW 10.4 mph 16.1 mph N/A   Clear
11:15 AM 55.4 °F - 30.2 °F 38% 30.16 in 10.0 mi NW 5.8 mph 17.3 mph N/A   Clear
11:35 AM 57.2 °F - 32.0 °F 38% 30.16 in 10.0 mi NNW 8.1 mph - N/A   Clear
11:55 AM 57.2 °F - 30.2 °F 36% 30.15 in 10.0 mi North 10.4 mph - N/A   Clear
12:15 PM 57.2 °F - 28.4 °F 33% 30.14 in 10.0 mi North 6.9 mph - N/A   Clear
12:35 PM 57.2 °F - 28.4 °F 33% 30.13 in 10.0 mi North 3.5 mph - N/A   Clear
12:55 PM 60.8 °F - 28.4 °F 29% 30.13 in 10.0 mi North 4.6 mph - N/A   Clear
1:15 PM 60.8 °F - 26.6 °F 27% 30.12 in 10.0 mi NNE 4.6 mph - N/A   Clear
1:35 PM 60.8 °F - 26.6 °F 27% 30.11 in 10.0 mi NNE 6.9 mph - N/A   Clear
1:55 PM 60.8 °F - 23.0 °F 23% 30.10 in 10.0 mi Calm Calm - N/A   Clear
2:15 PM 60.8 °F - 23.0 °F 23% 30.10 in 10.0 mi Calm Calm - N/A   Clear
2:35 PM 62.6 °F - 26.6 °F 26% 30.09 in 10.0 mi NE 3.5 mph - N/A   Clear
2:55 PM 62.6 °F - 26.6 °F 26% 30.09 in 10.0 mi Calm Calm - N/A   Clear
3:15 PM 62.6 °F - 23.0 °F 22% 30.10 in 10.0 mi North 3.5 mph - N/A   Clear
3:35 PM 62.6 °F - 24.8 °F 24% 30.10 in 10.0 mi NW 3.5 mph - N/A   Clear
3:55 PM 62.6 °F - 26.6 °F 26% 30.10 in 10.0 mi Calm Calm - N/A   Clear
4:15 PM 62.6 °F - 24.8 °F 24% 30.09 in 10.0 mi Calm Calm - N/A   Clear
4:35 PM 62.6 °F - 23.0 °F 22% 30.10 in 10.0 mi Calm Calm - N/A   Clear
4:55 PM 62.6 °F - 26.6 °F 26% 30.10 in 10.0 mi Calm Calm - N/A   Clear
5:15 PM 62.6 °F - 28.4 °F 27% 30.09 in 10.0 mi Calm Calm - N/A   Clear
5:35 PM 59.0 °F - 32.0 °F 36% 30.09 in 10.0 mi Calm Calm - N/A   Clear
5:55 PM 55.4 °F - 32.0 °F 41% 30.09 in 10.0 mi Calm Calm - N/A   Clear
6:15 PM 51.8 °F - 33.8 °F 50% 30.10 in 10.0 mi Calm Calm - N/A   Clear
6:35 PM 48.2 °F - 37.4 °F 66% 30.10 in 10.0 mi Calm Calm - N/A   Clear
6:55 PM 46.4 °F - 37.4 °F 71% 30.10 in 10.0 mi Calm Calm - N/A   Clear
7:15 PM 46.4 °F - 39.2 °F 76% 30.11 in 10.0 mi Calm Calm - N/A   Clear
7:35 PM 44.6 °F - 39.2 °F 81% 30.11 in 10.0 mi Calm Calm - N/A   Clear
7:55 PM 44.6 °F - 39.2 °F 81% 30.12 in 10.0 mi Calm Calm - N/A   Clear
8:15 PM 42.8 °F - 39.2 °F 87% 30.12 in 10.0 mi Calm Calm - N/A   Clear
8:35 PM 42.8 °F - 39.2 °F 87% 30.12 in 10.0 mi Calm Calm - N/A   Clear
8:55 PM 42.8 °F - 39.2 °F 87% 30.12 in 10.0 mi Calm Calm - N/A   Clear
9:15 PM 41.0 °F - 39.2 °F 93% 30.12 in 10.0 mi Calm Calm - N/A   Clear
9:35 PM 41.0 °F - 39.2 °F 93% 30.13 in 10.0 mi Calm Calm - N/A   Clear
9:55 PM 39.2 °F - 39.2 °F 100% 30.13 in 10.0 mi Calm Calm - N/A   Clear
10:15 PM 39.2 °F - 39.2 °F 100% 30.13 in 10.0 mi Calm Calm - N/A   Clear
10:35 PM 39.2 °F - 37.4 °F 93% 30.13 in 10.0 mi Calm Calm - N/A   Clear
10:55 PM 39.2 °F - 37.4 °F 93% 30.13 in 10.0 mi Calm Calm - N/A   Clear
11:15 PM 39.2 °F - 39.2 °F 100% 30.13 in 10.0 mi Calm Calm - N/A   Clear
11:35 PM 37.4 °F - 37.4 °F 100% 30.13 in 10.0 mi Calm Calm - N/A   Clear
11:55 PM 37.4 °F - 37.4 °F 100% 30.13 in 9.0 mi Calm Calm - N/A   Clear